Time;durP1;ratioP1;P1;durP2;ratioP2;P2;SDS_P1;SDS_P2;PMS_P1;PMS_P2;Temp;Humidity;BMP_temperature;BMP_pressure;BME280_temperature;BME280_humidity;BME280_pressure;Samples;Min_cycle;Max_cycle;Signal;HPM_P1;HPM_P2
2022/12/13 00:01:34;;;;;;;18.58;14.25;;;;;;;-7.84;100.00;95086.84;5042482;28;24981;-71
2022/12/13 00:04:04;;;;;;;22.25;14.95;;;;;;;-7.81;100.00;95089.38;5040973;28;24537;-71
2022/12/13 00:06:31;;;;;;;21.50;15.52;;;;;;;-7.82;100.00;95082.69;5048818;28;24436;-71
2022/12/13 00:08:59;;;;;;;23.27;14.88;;;;;;;-7.78;100.00;95083.50;5046320;28;24432;-71
2022/12/13 00:11:26;;;;;;;20.05;13.63;;;;;;;-7.67;100.00;95074.25;5048529;28;24447;-70
2022/12/13 00:13:54;;;;;;;26.75;16.50;;;;;;;-7.63;100.00;95072.56;5048515;28;24956;-71
2022/12/13 00:16:22;;;;;;;21.60;16.10;;;;;;;-7.82;100.00;95080.16;5049615;28;24442;-71
2022/12/13 00:18:50;;;;;;;21.70;15.00;;;;;;;-7.97;100.00;95085.25;5045687;28;24446;-71
2022/12/13 00:21:20;;;;;;;26.05;15.82;;;;;;;-8.12;100.00;95082.72;5049445;28;24450;-71
2022/12/13 00:23:47;;;;;;;22.77;16.25;;;;;;;-8.16;100.00;95081.91;5047452;28;24443;-71
2022/12/13 00:26:17;;;;;;;24.85;16.60;;;;;;;-8.06;100.00;95078.53;5043020;28;24442;-71
2022/12/13 00:28:45;;;;;;;24.38;16.05;;;;;;;-7.99;100.00;95081.88;5045260;28;24446;-70
2022/12/13 00:31:11;;;;;;;22.10;16.00;;;;;;;-7.94;100.00;95072.63;5046852;28;25074;-71
2022/12/13 00:33:38;;;;;;;29.02;15.05;;;;;;;-7.94;100.00;95070.13;5042505;28;25071;-70
2022/12/13 00:36:07;;;;;;;22.20;14.95;;;;;;;-7.85;100.00;95074.31;5039772;28;24439;-71
2022/12/13 00:38:36;;;;;;;28.45;17.17;;;;;;;-7.85;100.00;95066.78;5040075;28;24467;-71
2022/12/13 00:41:10;;;;;;;23.45;16.50;;;;;;;-7.83;100.00;95070.94;5046185;28;25009;-71
2022/12/13 00:43:37;;;;;;;20.10;15.90;;;;;;;-7.72;100.00;95058.31;5045906;28;24447;-71
2022/12/13 00:46:03;;;;;;;22.90;15.17;;;;;;;-7.93;100.00;95061.78;5044324;28;24431;-71
2022/12/13 00:48:30;;;;;;;22.33;15.25;;;;;;;-8.04;100.00;95059.28;5044796;28;24462;-71
2022/12/13 00:50:56;;;;;;;23.67;14.77;;;;;;;-8.10;100.00;95053.44;5050391;28;24517;-70
2022/12/13 00:53:23;;;;;;;23.05;15.13;;;;;;;-8.11;100.00;95050.09;5045830;28;24446;-71
2022/12/13 00:55:51;;;;;;;22.75;15.48;;;;;;;-8.05;100.00;95045.03;5043809;28;24438;-71
2022/12/13 00:58:17;;;;;;;21.65;14.85;;;;;;;-8.06;100.00;95050.91;5044794;28;24518;-71
2022/12/13 01:00:45;;;;;;;21.25;14.80;;;;;;;-8.11;100.00;95052.59;5043382;28;24435;-71
2022/12/13 01:03:20;;;;;;;19.52;14.80;;;;;;;-8.05;100.00;95045.03;5038414;28;24535;-71
2022/12/13 01:05:47;;;;;;;24.23;14.60;;;;;;;-8.21;100.00;95043.41;5040902;28;24493;-71
2022/12/13 01:08:14;;;;;;;24.42;15.35;;;;;;;-8.10;100.00;95043.38;5040687;28;24442;-71
2022/12/13 01:10:43;;;;;;;25.20;16.15;;;;;;;-7.99;100.00;95049.22;5037856;28;24427;-71
2022/12/13 01:13:11;;;;;;;23.90;15.70;;;;;;;-8.13;100.00;95048.41;5046173;28;24436;-71
2022/12/13 01:15:40;;;;;;;20.13;13.75;;;;;;;-8.40;100.00;95046.81;5049846;28;24445;-70
2022/12/13 01:18:07;;;;;;;19.67;14.05;;;;;;;-8.32;100.00;95047.63;5046458;28;24431;-70
2022/12/13 01:20:34;;;;;;;24.17;14.05;;;;;;;-8.27;100.00;95045.91;5038481;28;24508;-70
2022/12/13 01:23:00;;;;;;;24.90;13.88;;;;;;;-8.24;100.00;95045.09;5037675;28;25012;-71
2022/12/13 01:25:27;;;;;;;23.27;14.75;;;;;;;-8.19;100.00;95051.78;5042618;28;24439;-71
2022/12/13 01:27:53;;;;;;;18.60;12.68;;;;;;;-8.18;100.00;95045.91;5045341;28;24843;-69
2022/12/13 01:30:21;;;;;;;21.95;14.38;;;;;;;-8.17;100.00;95047.56;5049178;28;24435;-71
2022/12/13 01:32:48;;;;;;;21.42;13.63;;;;;;;-8.12;100.00;95032.47;5041294;28;24831;-71
2022/12/13 01:35:14;;;;;;;17.40;13.23;;;;;;;-8.08;100.00;95035.00;5042175;28;24463;-71
2022/12/13 01:37:41;;;;;;;21.58;13.93;;;;;;;-8.27;100.00;95033.34;5046608;28;25026;-71
2022/12/13 01:40:09;;;;;;;19.73;14.65;;;;;;;-8.14;100.00;95036.69;5044338;28;24544;-71
2022/12/13 01:42:37;;;;;;;18.53;13.53;;;;;;;-8.10;100.00;95035.84;5045538;28;24450;-71
2022/12/13 01:45:06;;;;;;;16.83;12.93;;;;;;;-8.19;100.00;95028.31;5043319;28;24986;-70
2022/12/13 01:47:40;;;;;;;19.33;12.93;;;;;;;-8.42;100.00;95030.91;5042508;28;25038;-71
2022/12/13 01:50:11;;;;;;;20.75;12.68;;;;;;;-8.56;100.00;95028.44;5047672;28;24450;-71
2022/12/13 01:52:38;;;;;;;19.53;12.53;;;;;;;-8.59;100.00;95029.28;5042611;28;24456;-71
2022/12/13 01:55:08;;;;;;;20.23;13.57;;;;;;;-8.58;100.00;95020.06;5047293;28;24489;-71
2022/12/13 01:57:36;;;;;;;18.85;12.57;;;;;;;-8.61;100.00;95023.41;5043860;28;24438;-70
2022/12/13 02:00:05;;;;;;;27.75;15.55;;;;;;;-8.61;100.00;95020.91;5037367;28;24435;-70
2022/12/13 02:02:32;;;;;;;24.02;14.75;;;;;;;-8.62;100.00;95015.88;5043383;28;24443;-71
2022/12/13 02:05:06;;;;;;;28.40;14.18;;;;;;;-8.58;100.00;95018.38;5046186;28;24446;-71
2022/12/13 02:07:35;;;;;;;24.95;15.02;;;;;;;-8.49;100.00;95016.69;5043715;28;24439;-71
2022/12/13 02:10:05;;;;;;;21.50;14.67;;;;;;;-8.60;100.00;95027.63;5039243;28;24516;-71
2022/12/13 02:12:34;;;;;;;26.33;15.20;;;;;;;-8.59;100.00;95020.91;5043044;28;24494;-71
2022/12/13 02:15:05;;;;;;;27.80;15.38;;;;;;;-8.64;100.00;95010.88;5036144;28;24442;-70
2022/12/13 02:17:44;;;;;;;20.58;14.90;;;;;;;-8.92;100.00;95014.25;5043602;28;24431;-71
2022/12/13 02:20:43;;;;;;;28.77;14.85;;;;;;;-9.04;100.00;95010.91;5040271;28;24438;-71
2022/12/13 02:23:36;;;;;;;22.83;14.43;;;;;;;-8.84;100.00;95010.06;5040891;28;24485;-70
2022/12/13 02:26:25;;;;;;;26.88;14.98;;;;;;;-8.71;100.00;95006.72;5009001;28;24442;-71
2022/12/13 02:29:07;;;;;;;24.15;15.95;;;;;;;-8.60;100.00;95005.03;5038933;28;24439;-71
2022/12/13 02:31:42;;;;;;;29.17;16.02;;;;;;;-8.55;100.00;94995.78;5042218;28;24478;-70
2022/12/13 02:34:14;;;;;;;23.08;15.77;;;;;;;-8.67;100.00;94995.00;5045413;28;24451;-71
2022/12/13 02:36:48;;;;;;;27.35;17.45;;;;;;;-8.66;100.00;95002.50;5044747;28;24436;-71
2022/12/13 02:39:20;;;;;;;26.52;17.75;;;;;;;-8.73;100.00;94998.31;5044683;28;25183;-71
2022/12/13 02:41:49;;;;;;;24.38;15.57;;;;;;;-8.80;100.00;95001.69;5044766;28;24457;-71
2022/12/13 02:44:19;;;;;;;27.60;17.00;;;;;;;-8.71;100.00;94996.66;5047402;28;24981;-71
2022/12/13 02:46:52;;;;;;;26.23;17.23;;;;;;;-8.71;100.00;94994.16;5038132;28;24525;-71
2022/12/13 02:49:20;;;;;;;31.25;18.80;;;;;;;-8.69;100.00;94996.66;5042160;28;24474;-71
2022/12/13 02:51:47;;;;;;;29.92;17.63;;;;;;;-8.60;100.00;94996.63;5049347;28;24451;-71
2022/12/13 02:54:14;;;;;;;23.27;15.75;;;;;;;-8.80;100.00;94984.13;5051913;28;24439;-70
2022/12/13 02:56:40;;;;;;;25.98;16.45;;;;;;;-8.91;100.00;94989.13;5040265;28;24438;-71
2022/12/13 02:59:13;;;;;;;22.70;16.20;;;;;;;-8.88;100.00;94993.31;5043055;28;24431;-71
2022/12/13 03:02:00;;;;;;;27.95;16.30;;;;;;;-8.82;100.00;94983.28;5048467;28;24446;-71
2022/12/13 03:06:28;;;;;;;25.13;15.98;;;;;;;-8.94;100.00;94984.13;5050029;28;24435;-71
2022/12/13 03:07:28;;;;;;;26.38;16.95;;;;;;;-8.88;100.00;94975.75;5046527;28;24423;-71
2022/12/13 03:10:02;;;;;;;19.70;14.67;;;;;;;-8.81;100.00;94974.91;5046979;28;25045;-71
2022/12/13 03:15:26;;;;;;;26.88;16.02;;;;;;;-8.81;100.00;94964.88;5048190;28;24447;-70
2022/12/13 03:17:59;;;;;;;30.13;18.42;;;;;;;-8.88;100.00;94976.59;5047321;28;24450;-71
2022/12/13 03:20:28;;;;;;;30.48;18.40;;;;;;;-8.87;100.00;94974.91;5047040;28;24439;-71
2022/12/13 03:22:56;;;;;;;24.67;16.27;;;;;;;-8.87;100.00;94970.72;5040011;28;24436;-71
2022/12/13 03:25:25;;;;;;;20.30;15.18;;;;;;;-8.94;100.00;94970.75;5047849;28;24443;-71
2022/12/13 03:27:52;;;;;;;22.55;15.73;;;;;;;-8.89;100.00;94969.09;5051579;28;24437;-71
2022/12/13 03:30:19;;;;;;;22.95;16.38;;;;;;;-8.83;100.00;94964.03;5048522;28;24826;-70
2022/12/13 03:32:45;;;;;;;26.90;15.70;;;;;;;-8.80;100.00;94959.84;5042863;28;24466;-70
2022/12/13 03:35:13;;;;;;;22.13;15.60;;;;;;;-8.83;100.00;94964.88;5046346;28;24427;-71
2022/12/13 03:37:40;;;;;;;26.85;17.60;;;;;;;-8.97;100.00;94960.69;5047971;28;24432;-71
2022/12/13 03:40:07;;;;;;;23.75;15.52;;;;;;;-9.07;100.00;94968.25;5048892;28;24802;-71
2022/12/13 03:42:34;;;;;;;21.48;14.88;;;;;;;-9.03;100.00;94959.88;5047872;28;25044;-70
2022/12/13 03:45:00;;;;;;;22.98;15.55;;;;;;;-9.20;100.00;94951.50;5044351;28;24439;-71
2022/12/13 03:47:27;;;;;;;22.80;15.50;;;;;;;-9.14;100.00;94948.19;5048166;28;24442;-71
2022/12/13 03:49:54;;;;;;;24.83;15.27;;;;;;;-9.16;100.00;94952.34;5047704;28;24446;-71
2022/12/13 03:52:22;;;;;;;19.98;14.68;;;;;;;-9.07;100.00;94949.84;5038438;28;24494;-71
2022/12/13 03:54:49;;;;;;;18.85;14.50;;;;;;;-9.22;100.00;94955.72;5045627;28;24985;-71
2022/12/13 03:57:15;;;;;;;22.77;14.57;;;;;;;-9.20;100.00;94943.16;5049953;28;24434;-71
2022/12/13 03:59:42;;;;;;;20.95;14.55;;;;;;;-9.14;100.00;94949.00;5047439;28;24438;-70
2022/12/13 04:02:08;;;;;;;21.58;14.52;;;;;;;-9.16;100.00;94945.66;5044434;28;24450;-71
2022/12/13 04:04:35;;;;;;;20.20;14.07;;;;;;;-9.07;100.00;94948.19;5049979;28;24432;-71
2022/12/13 04:07:01;;;;;;;19.52;14.68;;;;;;;-9.11;100.00;94943.16;5050654;28;25008;-71
2022/12/13 04:09:29;;;;;;;19.52;14.63;;;;;;;-9.12;100.00;94946.50;5039209;28;24436;-71
2022/12/13 04:14:40;;;;;;;18.42;13.98;;;;;;;-9.15;100.00;94952.38;5048029;28;25003;-70
2022/12/13 04:17:07;;;;;;;24.48;14.40;;;;;;;-9.23;100.00;94950.69;5050005;28;24434;-70
2022/12/13 04:19:33;;;;;;;21.60;15.70;;;;;;;-9.14;100.00;94953.19;5039943;28;24439;-70
2022/12/13 04:22:00;;;;;;;22.30;14.30;;;;;;;-9.13;100.00;94952.34;5042997;28;25000;-71
2022/12/13 04:24:26;;;;;;;18.77;13.57;;;;;;;-9.14;100.00;94956.53;5049293;28;24458;-70
2022/12/13 04:26:54;;;;;;;24.55;14.23;;;;;;;-9.24;100.00;94959.03;5046246;28;24473;-71
2022/12/13 04:29:21;;;;;;;19.38;14.13;;;;;;;-9.21;100.00;94962.38;5047979;28;24802;-71
2022/12/13 04:31:47;;;;;;;23.20;14.35;;;;;;;-9.19;100.00;94957.41;5040322;28;24436;-71
2022/12/13 04:34:14;;;;;;;20.13;14.52;;;;;;;-9.22;100.00;94960.72;5039491;28;25024;-71
2022/12/13 04:36:40;;;;;;;20.33;14.03;;;;;;;-9.19;100.00;94960.72;5045273;28;24435;-71
2022/12/13 04:39:07;;;;;;;24.50;14.25;;;;;;;-9.16;100.00;94949.84;5047482;28;24464;-70
2022/12/13 04:41:36;;;;;;;17.47;13.27;;;;;;;-9.11;100.00;94948.19;5042039;28;24463;-71
2022/12/13 04:44:05;;;;;;;24.38;14.15;;;;;;;-9.09;100.00;94949.84;5038853;28;24444;-71
2022/12/13 04:46:33;;;;;;;20.20;14.07;;;;;;;-9.09;100.00;94947.31;5047919;28;24446;-71
2022/12/13 04:48:59;;;;;;;21.43;12.87;;;;;;;-9.10;98.53;94948.16;5047416;28;24502;-70
2022/12/13 04:51:26;;;;;;;19.42;11.80;;;;;;;-9.21;99.18;94951.53;5043402;28;24438;-71
2022/12/13 04:53:53;;;;;;;18.98;12.43;;;;;;;-9.28;97.20;94945.66;5038520;28;24973;-71
2022/12/13 04:56:19;;;;;;;20.08;12.00;;;;;;;-9.42;98.27;94952.34;5045317;28;24431;-70
2022/12/13 04:58:46;;;;;;;19.55;13.05;;;;;;;-9.47;98.36;94944.00;5048686;28;24446;-71
2022/12/13 05:01:14;;;;;;;15.77;11.82;;;;;;;-9.56;100.00;94943.16;5042739;28;24450;-70
2022/12/13 05:03:40;;;;;;;25.20;15.10;;;;;;;-9.36;99.39;94937.31;5038302;28;24443;-71
2022/12/13 05:06:08;;;;;;;21.75;14.30;;;;;;;-9.35;99.98;94941.47;5037819;28;24794;-71
2022/12/13 05:08:36;;;;;;;18.35;13.80;;;;;;;-9.51;100.00;94941.47;5048437;28;24988;-71
2022/12/13 05:11:03;;;;;;;20.63;13.13;;;;;;;-9.52;100.00;94937.31;5045619;28;24445;-71
2022/12/13 05:13:30;;;;;;;18.65;13.05;;;;;;;-9.68;100.00;94932.25;5038283;28;24470;-70
2022/12/13 05:15:57;;;;;;;22.63;13.70;;;;;;;-9.72;100.00;94930.59;5045974;28;24431;-71
2022/12/13 05:18:26;;;;;;;22.17;12.85;;;;;;;-9.67;100.00;94929.78;5045615;28;24446;-71
2022/12/13 05:20:53;;;;;;;23.90;15.00;;;;;;;-9.56;100.00;94932.31;5045560;28;25011;-71
2022/12/13 05:23:20;;;;;;;24.75;15.57;;;;;;;-9.41;100.00;94934.81;5039735;28;24548;-70
2022/12/13 05:25:47;;;;;;;21.33;14.20;;;;;;;-9.37;100.00;94925.63;5040958;28;24439;-70
2022/12/13 05:28:14;;;;;;;22.20;15.13;;;;;;;-9.31;100.00;94923.94;5048370;28;24442;-70
2022/12/13 05:30:41;;;;;;;23.35;14.35;;;;;;;-9.34;100.00;94933.97;5045208;28;24432;-70
2022/12/13 05:33:09;;;;;;;25.88;13.95;;;;;;;-9.48;100.00;94920.59;5048273;28;24486;-71
2022/12/13 05:35:37;;;;;;;18.67;14.27;;;;;;;-9.54;100.00;94923.09;5039342;28;24493;-71
2022/12/13 05:38:04;;;;;;;22.45;14.98;;;;;;;-9.43;100.00;94930.63;5045087;28;24443;-71
2022/12/13 05:40:32;;;;;;;24.70;17.13;;;;;;;-9.37;100.00;94925.63;5041315;28;24461;-70
2022/12/13 05:42:59;;;;;;;34.80;19.67;;;;;;;-9.32;100.00;94923.94;5048491;28;24802;-71
2022/12/13 05:45:26;;;;;;;32.53;16.92;;;;;;;-9.38;100.00;94926.44;5048509;28;24438;-71
2022/12/13 05:47:52;;;;;;;30.88;16.75;;;;;;;-9.39;100.00;94925.59;5048372;28;24438;-71
2022/12/13 05:50:19;;;;;;;28.98;17.10;;;;;;;-9.39;100.00;94923.09;5040770;28;24443;-71
2022/12/13 05:52:47;;;;;;;31.85;18.10;;;;;;;-9.42;100.00;94922.25;5040558;28;25017;-71
2022/12/13 05:55:13;;;;;;;38.22;19.42;;;;;;;-9.50;100.00;94919.75;5042460;28;24433;-71
2022/12/13 05:57:40;;;;;;;34.22;19.20;;;;;;;-9.65;100.00;94928.09;5046402;28;24450;-71
2022/12/13 06:00:08;;;;;;;31.45;17.55;;;;;;;-9.55;100.00;94923.94;5041156;28;24974;-71
2022/12/13 06:02:37;;;;;;;42.30;18.02;;;;;;;-9.47;100.00;94914.75;5045677;28;24443;-71
2022/12/13 06:05:05;;;;;;;34.58;16.70;;;;;;;-9.44;100.00;94914.75;5048622;28;24450;-71
2022/12/13 06:07:32;;;;;;;33.97;16.08;;;;;;;-9.46;100.00;94913.06;5048639;28;24439;-71
2022/12/13 06:09:59;;;;;;;28.10;16.58;;;;;;;-9.47;100.00;94914.75;5043653;28;25004;-70
2022/12/13 06:12:26;;;;;;;25.88;16.80;;;;;;;-9.48;100.00;94913.09;5046189;28;24459;-70
2022/12/13 06:14:52;;;;;;;28.87;17.67;;;;;;;-9.57;100.00;94913.91;5047747;28;24507;-71
2022/12/13 06:17:20;;;;;;;35.33;17.20;;;;;;;-9.56;100.00;94915.59;5047048;28;24446;-71
2022/12/13 06:19:47;;;;;;;36.17;18.23;;;;;;;-9.57;100.00;94916.41;5043306;28;24465;-71
2022/12/13 06:22:13;;;;;;;30.45;18.40;;;;;;;-9.42;100.00;94922.25;5045681;28;24443;-71
2022/12/13 06:24:40;;;;;;;35.90;19.30;;;;;;;-9.39;100.00;94922.25;5033374;28;24442;-71
2022/12/13 06:27:08;;;;;;;35.38;19.58;;;;;;;-9.50;100.00;94918.06;5041245;28;24439;-73
2022/12/13 06:29:35;;;;;;;34.88;20.58;;;;;;;-9.55;100.00;94923.94;5037266;28;24795;-72
2022/12/13 06:32:02;;;;;;;33.13;20.83;;;;;;;-9.52;100.00;94924.78;5046254;28;25000;-71
2022/12/13 06:34:31;;;;;;;27.67;18.98;;;;;;;-9.56;100.00;94913.09;5039159;28;24486;-71
2022/12/13 06:36:57;;;;;;;25.95;16.92;;;;;;;-9.55;100.00;94917.25;5043253;28;24440;-71
2022/12/13 06:39:24;;;;;;;30.63;18.45;;;;;;;-9.56;100.00;94913.09;5036319;28;24439;-71
2022/12/13 06:41:51;;;;;;;30.67;19.05;;;;;;;-9.56;100.00;94915.59;5048085;28;24439;-71
2022/12/13 06:44:19;;;;;;;30.70;19.95;;;;;;;-9.67;100.00;94921.44;5042275;28;25263;-71
2022/12/13 06:46:45;;;;;;;32.17;18.33;;;;;;;-9.68;100.00;94929.75;5048025;28;24435;-71
2022/12/13 06:49:12;;;;;;;31.23;20.17;;;;;;;-9.69;100.00;94933.09;5041506;28;24438;-71
2022/12/13 06:51:38;;;;;;;29.23;18.58;;;;;;;-9.66;100.00;94935.63;5038516;28;24446;-71
2022/12/13 06:54:05;;;;;;;28.33;15.88;;;;;;;-9.57;100.00;94936.44;5034669;28;24582;-71
2022/12/13 06:56:32;;;;;;;26.05;16.40;;;;;;;-9.57;100.00;94935.63;5036316;28;24928;-71
2022/12/13 06:58:59;;;;;;;25.55;15.18;;;;;;;-9.50;98.42;94940.63;5035754;28;25044;-72
2022/12/13 07:01:27;;;;;;;27.23;16.30;;;;;;;-9.54;98.64;94938.13;5047795;28;24497;-71
2022/12/13 07:03:54;;;;;;;34.38;18.80;;;;;;;-9.57;96.80;94935.63;5043665;28;24446;-72
2022/12/13 07:06:22;;;;;;;32.15;18.40;;;;;;;-9.64;96.92;94942.31;5042521;28;24435;-72
2022/12/13 07:08:51;;;;;;;33.00;17.75;;;;;;;-9.79;98.38;94939.75;5043634;28;25001;-72
2022/12/13 07:11:19;;;;;;;37.03;19.70;;;;;;;-10.11;99.34;94940.53;5038389;28;24442;-72
2022/12/13 07:13:46;;;;;;;28.63;18.25;;;;;;;-10.04;100.00;94944.72;5038972;28;24460;-71
2022/12/13 07:16:13;;;;;;;30.45;17.42;;;;;;;-9.99;100.00;94945.56;5047223;28;24431;-72
2022/12/13 07:18:41;;;;;;;33.70;19.73;;;;;;;-9.65;99.39;94947.31;5044417;28;24436;-72
2022/12/13 07:21:09;;;;;;;25.23;18.05;;;;;;;-9.85;100.00;94942.28;5046982;28;25019;-71
2022/12/13 07:23:37;;;;;;;23.67;17.33;;;;;;;-9.81;100.00;94937.25;5037812;28;24439;-72
2022/12/13 07:26:03;;;;;;;26.47;15.10;;;;;;;-9.70;99.20;94944.81;5042255;28;24508;-71
2022/12/13 07:28:32;;;;;;;25.15;16.13;;;;;;;-9.91;99.56;94950.59;5041184;28;25060;-71
2022/12/13 07:31:00;;;;;;;27.27;17.73;;;;;;;-9.96;100.00;94946.41;5046925;28;25007;-71
2022/12/13 07:33:28;;;;;;;37.33;21.27;;;;;;;-9.84;100.00;94948.94;5041327;28;24459;-71
2022/12/13 07:36:01;;;;;;;41.60;24.45;;;;;;;-9.78;100.00;94941.47;5050912;28;24427;-72
2022/12/13 07:38:28;;;;;;;45.60;30.05;;;;;;;-9.48;100.00;94959.88;5042781;28;24920;-73
2022/12/13 07:40:56;;;;;;;41.50;26.48;;;;;;;-9.76;100.00;94949.78;5051436;28;24485;-71
2022/12/13 07:43:22;;;;;;;40.95;26.13;;;;;;;-9.67;100.00;94954.00;5045502;28;24442;-72
2022/12/13 07:45:49;;;;;;;41.30;24.50;;;;;;;-9.60;100.00;94960.66;5050737;28;24612;-72
2022/12/13 07:48:15;;;;;;;35.08;23.88;;;;;;;-9.52;100.00;94969.91;5040568;28;24432;-71
2022/12/13 07:50:42;;;;;;;37.33;24.15;;;;;;;-9.42;100.00;94972.41;5049862;28;24435;-71
2022/12/13 07:53:10;;;;;;;32.25;24.83;;;;;;;-9.39;100.00;94973.25;5050733;28;24463;-71
2022/12/13 07:55:37;;;;;;;36.53;23.23;;;;;;;-9.43;100.00;94971.56;5043474;28;24432;-71
2022/12/13 07:58:06;;;;;;;39.88;24.55;;;;;;;-9.32;100.00;94962.38;5045574;28;24443;-71
2022/12/13 08:00:32;;;;;;;43.92;24.67;;;;;;;-9.24;100.00;94959.03;5048016;28;24427;-70
2022/12/13 08:03:00;;;;;;;41.70;23.70;;;;;;;-9.13;100.00;94969.91;5044095;28;24506;-70
2022/12/13 08:05:26;;;;;;;36.38;24.25;;;;;;;-9.08;100.00;94970.75;5041211;28;24476;-70
2022/12/13 08:07:53;;;;;;;46.22;26.48;;;;;;;-8.88;100.00;94966.56;5045117;28;24447;-71
2022/12/13 08:10:21;;;;;;;44.55;26.55;;;;;;;-8.73;100.00;94970.72;5036870;28;24990;-70
2022/12/13 08:12:48;;;;;;;44.03;23.27;;;;;;;-8.66;100.00;94974.06;5037766;28;24479;-70
2022/12/13 08:15:16;;;;;;;40.65;23.48;;;;;;;-8.75;100.00;94974.88;5045332;28;24560;-71
2022/12/13 08:17:43;;;;;;;39.55;23.08;;;;;;;-8.75;100.00;94969.03;5040241;28;25456;-72
2022/12/13 08:20:10;;;;;;;45.33;23.08;;;;;;;-8.64;100.00;94959.81;5040936;28;24439;-71
2022/12/13 08:22:36;;;;;;;38.40;24.88;;;;;;;-8.65;100.00;94964.00;5043955;28;24439;-71
2022/12/13 08:25:03;;;;;;;42.53;28.60;;;;;;;-8.49;100.00;94961.47;5047250;28;24535;-71
2022/12/13 08:27:32;;;;;;;41.03;25.43;;;;;;;-8.34;100.00;94959.72;5047584;28;25028;-71
2022/12/13 08:29:58;;;;;;;37.80;25.95;;;;;;;-8.38;100.00;94962.25;5041247;28;24809;-70
2022/12/13 08:32:25;;;;;;;36.78;23.20;;;;;;;-8.38;100.00;94960.63;5041060;28;24440;-70
2022/12/13 08:34:51;;;;;;;32.10;22.02;;;;;;;-8.52;100.00;94969.84;5042207;28;24451;-71
2022/12/13 08:37:18;;;;;;;34.67;22.93;;;;;;;-8.44;100.00;94968.16;5045983;28;24522;-71
2022/12/13 08:39:44;;;;;;;44.47;24.30;;;;;;;-8.43;100.00;94972.31;5039128;28;24794;-71
2022/12/13 08:42:13;;;;;;;35.47;23.43;;;;;;;-8.39;100.00;94971.47;5041211;28;24508;-72
2022/12/13 08:44:41;;;;;;;38.42;26.17;;;;;;;-8.29;100.00;94970.59;5045376;28;24485;-70
2022/12/13 08:47:08;;;;;;;42.90;29.25;;;;;;;-8.20;100.00;94967.19;5050372;28;24431;-70
2022/12/13 08:49:35;;;;;;;44.35;29.45;;;;;;;-8.12;100.00;94973.06;5038068;28;24427;-70
2022/12/13 08:52:01;;;;;;;40.83;28.17;;;;;;;-8.06;100.00;94970.50;5043341;28;24992;-70
2022/12/13 08:54:28;;;;;;;53.78;31.50;;;;;;;-8.00;100.00;94973.84;5049257;28;24451;-70
2022/12/13 08:56:54;;;;;;;42.92;31.17;;;;;;;-7.97;100.00;94969.63;5050132;28;24593;-71
2022/12/13 08:59:24;;;;;;;40.83;28.10;;;;;;;-7.97;100.00;94963.75;5044540;28;24462;-71
2022/12/13 09:01:52;;;;;;;43.45;28.25;;;;;;;-7.86;100.00;94957.84;5049307;28;24443;-73
2022/12/13 09:04:19;;;;;;;37.88;26.75;;;;;;;-7.78;100.00;94950.28;5048311;28;24438;-72
2022/12/13 09:06:45;;;;;;;37.40;26.25;;;;;;;-7.59;100.00;94954.34;5049048;28;24438;-71
2022/12/13 09:09:12;;;;;;;39.30;27.00;;;;;;;-7.49;100.00;94955.13;5044191;28;24490;-71
2022/12/13 09:11:39;;;;;;;40.75;26.80;;;;;;;-7.49;100.00;94951.75;5047221;28;24435;-71
2022/12/13 09:14:05;;;;;;;44.55;26.60;;;;;;;-7.47;100.00;94960.16;5044254;28;24455;-72
2022/12/13 09:16:35;;;;;;;47.45;28.55;;;;;;;-7.53;100.00;94955.16;5050056;28;25011;-71
2022/12/13 09:19:04;;;;;;;36.83;26.37;;;;;;;-7.42;100.00;94961.78;5044739;28;24530;-71
2022/12/13 09:21:31;;;;;;;43.72;29.23;;;;;;;-7.38;100.00;94962.59;5046975;28;24461;-71
2022/12/13 09:23:58;;;;;;;46.55;27.45;;;;;;;-7.28;100.00;94955.81;5045040;28;24482;-71
2022/12/13 09:26:24;;;;;;;50.38;28.27;;;;;;;-7.30;100.00;94960.88;5051591;28;24431;-71
2022/12/13 09:28:51;;;;;;;41.80;28.00;;;;;;;-7.07;100.00;94961.53;5046182;28;24489;-73
2022/12/13 09:31:19;;;;;;;51.30;30.00;;;;;;;-6.96;100.00;94965.66;5048143;28;24431;-71
2022/12/13 09:33:47;;;;;;;43.67;28.77;;;;;;;-6.97;100.00;94974.03;5045085;28;24460;-71
2022/12/13 09:36:17;;;;;;;46.15;28.65;;;;;;;-7.02;100.00;94966.53;5047928;28;24465;-71
2022/12/13 09:38:43;;;;;;;38.90;27.75;;;;;;;-6.97;100.00;94976.53;5045042;28;24443;-71
2022/12/13 09:41:20;;;;;;;38.40;27.17;;;;;;;-6.74;100.00;94973.84;5043423;28;24612;-72
2022/12/13 09:43:49;;;;;;;36.75;27.08;;;;;;;-6.65;100.00;94973.75;5044719;28;25001;-71
2022/12/13 09:46:26;;;;;;;34.80;25.02;;;;;;;-6.61;100.00;94958.59;5047293;28;24428;-71
2022/12/13 09:48:55;;;;;;;33.90;23.92;;;;;;;-6.28;100.00;94968.34;5044889;28;24489;-71
2022/12/13 09:51:25;;;;;;;36.33;24.80;;;;;;;-6.10;100.00;94973.19;5047807;28;24527;-71
2022/12/13 09:53:53;;;;;;;33.88;24.08;;;;;;;-5.96;100.00;94960.44;5045144;28;24466;-71
2022/12/13 09:56:22;;;;;;;35.20;23.17;;;;;;;-6.02;100.00;94960.50;5048138;28;24513;-71
2022/12/13 09:58:51;;;;;;;36.70;23.13;;;;;;;-6.16;100.00;94958.97;5045196;28;24527;-72
2022/12/13 10:01:18;;;;;;;31.98;22.02;;;;;;;-6.11;100.00;94956.41;5048190;28;24438;-71
2022/12/13 10:03:48;;;;;;;28.55;21.27;;;;;;;-6.07;100.00;94958.03;5046149;28;24904;-72
2022/12/13 10:06:17;;;;;;;27.92;19.52;;;;;;;-5.89;100.00;94947.72;5048738;28;24581;-71
2022/12/13 10:08:48;;;;;;;25.08;17.98;;;;;;;-5.69;100.00;94946.59;5045416;28;24431;-71
2022/12/13 10:11:16;;;;;;;42.45;22.77;;;;;;;-5.60;100.00;94949.84;5048048;28;24489;-72
2022/12/13 10:13:45;;;;;;;31.35;21.20;;;;;;;-5.53;100.00;94949.75;5045131;28;24467;-72
2022/12/13 10:16:18;;;;;;;30.02;19.95;;;;;;;-5.52;100.00;94948.91;5048341;28;24906;-71
2022/12/13 10:18:45;;;;;;;31.77;19.48;;;;;;;-5.67;100.00;94948.25;5040408;28;24438;-72
2022/12/13 10:21:16;;;;;;;25.25;17.30;;;;;;;-5.74;100.00;94943.31;5048091;28;24435;-71
2022/12/13 10:23:42;;;;;;;23.77;17.85;;;;;;;-5.72;100.00;94939.91;5045254;28;24428;-71
2022/12/13 10:26:12;;;;;;;31.05;16.77;;;;;;;-5.59;100.00;94940.59;5048376;28;24438;-71
2022/12/13 10:28:40;;;;;;;24.88;17.38;;;;;;;-5.53;100.00;94942.19;5039368;28;24431;-71
2022/12/13 10:31:07;;;;;;;24.40;18.10;;;;;;;-5.35;100.00;94937.69;5047975;28;24434;-71
2022/12/13 10:33:36;;;;;;;26.80;18.48;;;;;;;-5.31;100.00;94933.44;5045372;28;24464;-71
2022/12/13 10:36:15;;;;;;;28.85;20.33;;;;;;;-5.39;100.00;94926.00;5044145;28;24431;-72
2022/12/13 10:38:44;;;;;;;30.67;20.98;;;;;;;-5.48;100.00;94922.78;5040695;28;24424;-71
2022/12/13 10:41:43;;;;;;;35.65;21.15;;;;;;;-5.40;100.00;94921.81;5048326;28;24528;-71
2022/12/13 10:44:20;;;;;;;29.42;19.35;;;;;;;-5.35;100.00;94925.09;4986946;28;24429;-72
2022/12/13 10:46:52;;;;;;;30.20;19.20;;;;;;;-5.26;100.00;94928.34;5024204;28;24432;-71
2022/12/13 10:49:21;;;;;;;35.53;19.47;;;;;;;-5.41;100.00;94925.19;5043521;28;24519;-71
2022/12/13 10:51:50;;;;;;;24.55;17.58;;;;;;;-5.34;100.00;94928.44;5043151;28;24436;-71
2022/12/13 10:54:24;;;;;;;31.02;19.05;;;;;;;-5.55;100.00;94921.19;5043317;28;25012;-71
2022/12/13 10:56:58;;;;;;;25.25;17.85;;;;;;;-5.27;100.00;94917.38;5043804;28;24523;-71
2022/12/13 10:59:27;;;;;;;24.27;17.00;;;;;;;-5.15;100.00;94922.28;5045522;28;24497;-71
2022/12/13 11:01:54;;;;;;;31.65;18.77;;;;;;;-5.19;100.00;94923.19;5046434;28;24439;-71
2022/12/13 11:04:24;;;;;;;23.85;17.48;;;;;;;-5.25;100.00;94915.69;5047729;28;24428;-70
2022/12/13 11:06:51;;;;;;;24.05;16.77;;;;;;;-5.02;100.00;94922.06;5043318;28;24440;-72
2022/12/13 11:09:25;;;;;;;28.58;17.42;;;;;;;-5.07;100.00;94918.78;5048876;28;24443;-72
2022/12/13 11:11:55;;;;;;;27.98;16.38;;;;;;;-5.18;100.00;94917.25;5044574;28;24805;-72
2022/12/13 11:14:24;;;;;;;25.02;16.17;;;;;;;-4.91;100.00;94910.09;5047842;28;24447;-72
2022/12/13 11:16:55;;;;;;;21.48;15.80;;;;;;;-4.93;100.00;94909.28;5047261;28;24485;-71
2022/12/13 11:19:26;;;;;;;28.20;17.65;;;;;;;-5.02;100.00;94906.91;5041974;28;24471;-72
2022/12/13 11:21:53;;;;;;;26.65;16.65;;;;;;;-5.02;100.00;94901.88;5042161;28;24593;-71